Time;durP1;ratioP1;P1;durP2;ratioP2;P2;SDS_P1;SDS_P2;PMS_P1;PMS_P2;Temp;Humidity;BMP_temperature;BMP_pressure;BME280_temperature;BME280_humidity;BME280_pressure;Samples;Min_cycle;Max_cycle;Signal;HPM_P1;HPM_P2
2022/08/10 00:01:06;;;;;;;7.82;4.22;;;;;;;18.30;100.00;99882.97;4385595;32;20069;-72
2022/08/10 00:03:33;;;;;;;6.68;3.97;;;;;;;18.38;100.00;99923.31;4388066;32;20060;-72
2022/08/10 00:05:59;;;;;;;7.85;4.05;;;;;;;18.12;100.00;99920.66;4401181;32;20356;-72
2022/08/10 00:08:25;;;;;;;4.40;3.37;;;;;;;18.01;100.00;99921.78;4400471;32;20445;-74
2022/08/10 00:10:53;;;;;;;12.40;3.22;;;;;;;18.03;100.00;99922.34;4393958;32;20403;-71
2022/08/10 00:13:20;;;;;;;7.78;3.40;;;;;;;17.87;100.00;99888.03;4401174;32;20030;-71
2022/08/10 00:15:47;;;;;;;7.82;4.10;;;;;;;17.92;100.00;99877.16;4401116;32;20042;-70
2022/08/10 00:18:14;;;;;;;7.90;2.92;;;;;;;18.29;100.00;99924.97;4401028;32;20061;-70
2022/08/10 00:20:40;;;;;;;8.55;3.20;;;;;;;18.10;100.00;99892.06;4399611;32;20061;-73
2022/08/10 00:23:06;;;;;;;5.97;3.62;;;;;;;17.93;100.00;99873.31;4400741;32;20809;-71
2022/08/10 00:25:33;;;;;;;4.87;3.15;;;;;;;18.21;100.00;99909.19;4400962;32;20068;-71
2022/08/10 00:27:59;;;;;;;8.88;4.30;;;;;;;17.75;100.00;99853.72;4402963;32;20027;-71
2022/08/10 00:30:25;;;;;;;6.43;3.60;;;;;;;18.10;100.00;99911.94;4415525;32;20039;-71
2022/08/10 00:32:52;;;;;;;9.15;4.22;;;;;;;17.70;100.00;99913.66;4413430;32;20030;-71
2022/08/10 00:35:18;;;;;;;6.80;3.53;;;;;;;17.38;100.00;99906.62;4417921;32;20042;-71
2022/08/10 00:37:45;;;;;;;8.98;3.70;;;;;;;17.06;100.00;99871.56;4432642;32;20067;-71
2022/08/10 00:40:11;;;;;;;9.02;4.30;;;;;;;17.20;100.00;99915.34;4414090;32;20056;-70
2022/08/10 00:42:38;;;;;;;7.35;4.00;;;;;;;17.12;100.00;99929.50;4414367;32;20420;-72
2022/08/10 00:45:05;;;;;;;3.40;2.95;;;;;;;17.00;100.00;99927.84;4415623;32;20076;-71
2022/08/10 00:47:31;;;;;;;8.88;4.10;;;;;;;16.90;100.00;99889.78;4415611;32;20026;-72
2022/08/10 00:49:58;;;;;;;9.95;4.60;;;;;;;17.04;100.00;99909.91;4415575;32;20353;-71
2022/08/10 00:52:26;;;;;;;5.82;3.78;;;;;;;17.16;100.00;99919.72;4383450;32;20076;-72
2022/08/10 00:54:54;;;;;;;7.32;4.20;;;;;;;16.90;100.00;99889.78;4383831;32;20398;-70
2022/08/10 00:57:20;;;;;;;5.00;3.87;;;;;;;17.18;100.00;99914.81;4385618;32;20035;-70
2022/08/10 00:59:47;;;;;;;3.33;3.03;;;;;;;17.20;100.00;99923.50;4385242;32;20090;-71
2022/08/10 01:02:13;;;;;;;6.55;3.30;;;;;;;17.31;100.00;99925.16;4385518;32;20034;-71
2022/08/10 01:04:40;;;;;;;4.18;3.37;;;;;;;17.01;100.00;99885.97;4386563;32;20030;-72
2022/08/10 01:07:15;;;;;;;8.15;3.55;;;;;;;17.29;100.00;99924.59;4386289;32;20074;-72
2022/08/10 01:10:00;;;;;;;4.97;3.20;;;;;;;17.12;100.00;99910.44;4371823;32;20032;-71
2022/08/10 01:12:49;;;;;;;5.65;3.67;;;;;;;16.97;100.00;99922.94;4387913;32;20065;-74
2022/08/10 01:15:28;;;;;;;7.43;3.42;;;;;;;16.69;100.00;99878.84;4388696;32;20364;-71
2022/08/10 01:18:29;;;;;;;9.45;4.07;;;;;;;16.90;100.00;99916.97;4387390;32;20069;-71
2022/08/10 01:21:25;;;;;;;4.65;3.80;;;;;;;16.93;100.00;99910.16;4360413;32;20032;-71
2022/08/10 01:24:18;;;;;;;13.65;4.30;;;;;;;16.94;100.00;99907.16;4407784;32;20046;-71
2022/08/10 01:27:03;;;;;;;5.57;4.07;;;;;;;16.92;100.00;99909.34;4418111;32;20060;-71
2022/08/10 01:29:52;;;;;;;4.97;4.03;;;;;;;16.88;100.00;99919.13;4418323;32;20038;-71
2022/08/10 01:32:28;;;;;;;7.57;4.30;;;;;;;16.55;100.00;99883.16;4417622;32;20026;-72
2022/08/10 01:35:02;;;;;;;5.95;4.62;;;;;;;16.48;100.00;99877.13;4388195;32;20209;-71
2022/08/10 01:37:33;;;;;;;6.70;4.22;;;;;;;16.64;100.00;99903.28;4388255;32;20031;-71
2022/08/10 01:40:03;;;;;;;5.40;4.30;;;;;;;16.70;100.00;99913.09;4387639;32;20080;-72
2022/08/10 01:42:33;;;;;;;5.43;4.45;;;;;;;16.73;100.00;99910.91;4387681;32;20179;-71
2022/08/10 01:45:03;;;;;;;9.15;5.47;;;;;;;16.60;100.00;99902.19;4372757;32;20027;-71
2022/08/10 01:50:25;;;;;;;5.97;3.70;;;;;;;16.47;100.00;99889.94;4388221;32;20086;-71
2022/08/10 01:52:59;;;;;;;9.02;4.95;;;;;;;16.47;100.00;99889.13;4356551;32;20477;-72
2022/08/10 01:55:27;;;;;;;11.88;4.80;;;;;;;16.67;100.00;99908.19;4357828;32;20418;-71
2022/08/10 01:57:55;;;;;;;7.25;4.28;;;;;;;16.42;100.00;99884.47;4356514;32;20385;-71
2022/08/10 02:00:24;;;;;;;14.18;4.95;;;;;;;16.71;100.00;99919.34;4357806;32;20047;-71
2022/08/10 02:02:52;;;;;;;10.80;5.25;;;;;;;16.91;100.00;99924.03;4343138;33;20114;-71
2022/08/10 02:05:22;;;;;;;8.65;4.40;;;;;;;16.81;100.00;99929.44;4343006;33;20044;-71
2022/08/10 02:07:49;;;;;;;9.40;4.78;;;;;;;16.70;100.00;99891.34;4341881;33;20054;-73
2022/08/10 02:10:18;;;;;;;11.27;4.97;;;;;;;16.94;100.00;99928.12;4342671;33;20372;-71
2022/08/10 02:12:45;;;;;;;4.65;4.03;;;;;;;16.82;100.00;99920.19;4342437;33;20051;-72
2022/08/10 02:15:17;;;;;;;6.75;5.00;;;;;;;16.84;100.00;99918.00;4339995;33;20093;-72
2022/08/10 02:18:00;;;;;;;9.60;4.97;;;;;;;16.50;100.00;99891.31;4340625;33;20036;-74
2022/08/10 02:20:39;;;;;;;6.07;4.12;;;;;;;16.52;100.00;99916.31;4342876;33;20070;-72
2022/08/10 02:23:11;;;;;;;10.32;4.62;;;;;;;16.34;100.00;99914.91;4356371;32;20053;-71
2022/08/10 02:25:38;;;;;;;7.20;5.53;;;;;;;16.33;100.00;99924.94;4371405;32;20019;-72
2022/08/10 02:28:06;;;;;;;5.25;4.22;;;;;;;16.21;100.00;99910.78;4371990;32;20475;-71
2022/08/10 02:30:34;;;;;;;5.80;4.62;;;;;;;15.93;100.00;99888.34;4371865;32;20051;-72
2022/08/10 02:33:00;;;;;;;7.10;4.97;;;;;;;16.19;100.00;99912.91;4371108;32;20369;-72
2022/08/10 02:35:28;;;;;;;13.50;5.97;;;;;;;16.13;100.00;99884.09;4371843;32;20087;-71
2022/08/10 02:38:01;;;;;;;8.63;5.53;;;;;;;16.21;100.00;99890.91;4371904;32;20035;-71
2022/08/10 02:40:40;;;;;;;17.08;6.00;;;;;;;16.42;100.00;99921.69;4371144;32;20368;-72
2022/08/10 02:43:12;;;;;;;7.85;5.10;;;;;;;16.33;100.00;99903.19;4372074;32;20055;-71
2022/08/10 02:45:46;;;;;;;14.00;4.78;;;;;;;16.63;100.00;99934.28;4371566;32;20430;-71
2022/08/10 02:48:18;;;;;;;8.85;5.28;;;;;;;16.58;100.00;99942.44;4370966;32;20365;-74
2022/08/10 02:50:54;;;;;;;17.33;6.20;;;;;;;16.22;100.00;99884.41;4377117;32;20047;-71
2022/08/10 02:53:36;;;;;;;9.32;5.12;;;;;;;16.23;100.00;99894.22;4417822;32;20042;-72
2022/08/10 02:56:08;;;;;;;;;;;;;;;16.19;100.00;99890.38;4385296;32;20043;-72
2022/08/10 02:58:41;;;;;;;;;;;;;;;16.65;100.00;99937.53;4387428;32;19945;-71
2022/08/10 03:01:10;;;;;;;7.07;4.57;;;;;;;16.46;100.00;99928.25;4386749;32;20023;-71
2022/08/10 03:03:51;;;;;;;7.60;5.97;;;;;;;16.12;100.00;99890.62;4386359;32;20078;-74
2022/08/10 03:06:31;;;;;;;6.00;5.05;;;;;;;16.16;100.00;99903.41;4386757;32;20423;-71
2022/08/10 03:09:00;;;;;;;9.57;4.30;;;;;;;16.10;100.00;99887.37;4386728;32;20039;-71
2022/08/10 03:11:29;;;;;;;11.73;4.70;;;;;;;16.22;100.00;99917.81;4386113;32;20407;-73
2022/08/10 03:13:58;;;;;;;14.50;5.50;;;;;;;16.11;100.00;99932.44;4386648;32;20120;-71
2022/08/10 03:16:27;;;;;;;8.52;4.75;;;;;;;15.96;100.00;99936.72;4386741;32;20038;-71
2022/08/10 03:18:58;;;;;;;15.93;6.32;;;;;;;15.97;100.00;99924.78;4370203;32;20024;-71
2022/08/10 03:21:26;;;;;;;7.93;4.80;;;;;;;15.94;100.00;99932.66;4369109;32;20044;-71
2022/08/10 03:23:54;;;;;;;14.60;6.37;;;;;;;15.83;100.00;99925.50;4371360;32;20382;-72
2022/08/10 03:26:21;;;;;;;10.75;5.22;;;;;;;15.83;100.00;99928.22;4379041;32;20119;-71
2022/08/10 03:28:47;;;;;;;10.48;4.53;;;;;;;15.48;100.00;99887.00;4400142;32;20066;-71
2022/08/10 03:31:14;;;;;;;11.68;5.55;;;;;;;15.88;100.00;99922.84;4399490;32;20035;-74
2022/08/10 03:33:42;;;;;;;9.68;5.03;;;;;;;15.70;100.00;99907.75;4400756;32;20415;-72
2022/08/10 03:36:09;;;;;;;8.75;4.60;;;;;;;15.48;100.00;99859.84;4401962;32;20061;-71
2022/08/10 03:38:36;;;;;;;7.65;4.32;;;;;;;15.23;100.00;99836.88;4401197;32;20490;-71
2022/08/10 03:41:05;;;;;;;10.38;4.93;;;;;;;15.70;100.00;99902.31;4401370;32;20035;-71
2022/08/10 03:43:33;;;;;;;7.60;5.90;;;;;;;15.83;100.00;99915.47;4399289;32;20030;-72
2022/08/10 03:46:05;;;;;;;10.63;5.62;;;;;;;15.59;100.00;99896.84;4401065;32;20055;-71
2022/08/10 03:48:32;;;;;;;;;;;;;;;15.37;100.00;99841.87;4401923;32;20031;-71
2022/08/10 03:51:00;;;;;;;17.15;5.82;;;;;;;15.84;100.00;99932.56;4401692;32;19944;-72
2022/08/10 03:53:27;;;;;;;7.72;5.60;;;;;;;15.87;100.00;99932.06;4399306;32;20433;-74
2022/08/10 03:55:54;;;;;;;8.38;5.65;;;;;;;15.75;100.00;99891.50;4401466;32;20969;-72
2022/08/10 03:58:21;;;;;;;10.18;6.28;;;;;;;16.06;100.00;99935.16;4400765;32;20030;-71
2022/08/10 04:00:49;;;;;;;10.50;5.70;;;;;;;16.08;100.00;99924.81;4413532;32;20086;-72
2022/08/10 04:03:16;;;;;;;12.68;5.95;;;;;;;16.23;100.00;99933.06;4399682;32;20038;-72
2022/08/10 04:05:43;;;;;;;10.40;6.15;;;;;;;16.05;100.00;99890.88;4401233;32;20031;-71
2022/08/10 04:08:09;;;;;;;18.50;6.82;;;;;;;16.53;100.00;99936.97;4384833;32;20043;-71
2022/08/10 04:10:36;;;;;;;9.57;5.70;;;;;;;16.62;100.00;99931.81;4386219;32;20388;-71
2022/08/10 04:13:02;;;;;;;14.35;6.45;;;;;;;16.63;100.00;99939.72;4386134;32;20035;-71
2022/08/10 04:15:28;;;;;;;19.45;6.43;;;;;;;16.45;100.00;99916.56;4383808;32;20042;-72
2022/08/10 04:17:55;;;;;;;10.65;6.07;;;;;;;16.69;100.00;99941.38;4385113;32;20361;-71
2022/08/10 04:21:07;;;;;;;10.00;5.60;;;;;;;16.75;100.00;99930.50;4385724;32;20470;-72
2022/08/10 04:23:39;;;;;;;8.60;5.85;;;;;;;17.06;100.00;99943.09;4355535;32;20027;-71
2022/08/10 04:26:06;;;;;;;8.63;5.30;;;;;;;17.16;100.00;99957.81;4356079;32;20045;-72
2022/08/10 04:28:32;;;;;;;10.38;5.20;;;;;;;16.94;100.00;99918.03;4354745;32;20471;-74
2022/08/10 04:31:01;;;;;;;9.93;5.45;;;;;;;17.30;100.00;99942.56;4354349;32;20044;-72
2022/08/10 04:33:30;;;;;;;16.83;6.28;;;;;;;17.38;100.00;99952.91;4357802;32;20052;-71
2022/08/10 04:35:58;;;;;;;9.55;5.97;;;;;;;16.94;100.00;99865.56;4370730;32;20075;-72
2022/08/10 04:38:34;;;;;;;11.02;6.32;;;;;;;17.43;100.00;99958.34;4368200;32;20031;-72
2022/08/10 04:41:01;;;;;;;7.40;5.10;;;;;;;17.39;100.00;99940.94;4370229;32;20814;-71
2022/08/10 04:43:28;;;;;;;11.43;6.00;;;;;;;17.54;100.00;99942.03;4340943;33;20044;-72
2022/08/10 04:45:54;;;;;;;9.35;6.50;;;;;;;17.66;100.00;99947.19;4326244;33;20032;-72
2022/08/10 04:48:23;;;;;;;13.38;5.50;;;;;;;17.70;100.00;99956.44;4325868;33;20024;-71
2022/08/10 04:50:50;;;;;;;10.05;5.05;;;;;;;17.74;100.00;99941.16;4324209;33;20036;-71
2022/08/10 04:53:16;;;;;;;8.55;5.85;;;;;;;17.94;100.00;99968.41;4327169;33;20053;-71
2022/08/10 04:55:43;;;;;;;8.27;5.35;;;;;;;17.72;100.00;99951.53;4340725;33;20017;-71
2022/08/10 04:58:09;;;;;;;6.40;5.60;;;;;;;17.67;100.00;99918.84;4340783;33;20044;-71
2022/08/10 05:00:35;;;;;;;10.80;5.25;;;;;;;18.10;100.00;99960.19;4340114;33;20040;-71
2022/08/10 05:03:02;;;;;;;9.80;5.00;;;;;;;18.04;100.00;99951.22;4350627;33;20373;-71
2022/08/10 05:05:29;;;;;;;9.75;5.20;;;;;;;18.02;100.00;99931.59;4355489;33;20087;-71
2022/08/10 05:07:55;;;;;;;9.75;5.20;;;;;;;18.33;100.00;99970.47;4355366;33;20393;-71
2022/08/10 05:10:22;;;;;;;8.90;5.03;;;;;;;18.42;100.00;99962.53;4354260;33;20049;-71
2022/08/10 05:12:48;;;;;;;14.90;5.05;;;;;;;18.36;100.00;99920.03;4354158;33;20043;-71
2022/08/10 05:15:17;;;;;;;8.02;4.20;;;;;;;18.74;100.00;99964.00;4361875;32;20484;-71
2022/08/10 05:17:44;;;;;;;10.80;3.45;;;;;;;18.74;100.00;99958.56;4382377;32;20081;-71
2022/08/10 05:20:11;;;;;;;6.57;4.20;;;;;;;18.86;100.00;99978.16;4385498;32;20469;-71
2022/08/10 05:22:40;;;;;;;5.93;4.18;;;;;;;18.93;100.00;99974.31;4385499;32;20081;-71
2022/08/10 05:25:14;;;;;;;5.05;3.60;;;;;;;18.98;100.00;99949.72;4384286;32;20061;-73
2022/08/10 05:27:42;;;;;;;4.68;3.62;;;;;;;19.34;100.00;99971.31;4411703;32;20082;-71
2022/08/10 05:30:13;;;;;;;7.18;3.92;;;;;;;19.40;100.00;99967.41;4400503;32;20052;-72
2022/08/10 05:32:39;;;;;;;7.68;3.53;;;;;;;19.34;100.00;99944.00;4400359;32;20072;-71
2022/08/10 05:35:06;;;;;;;7.87;4.03;;;;;;;18.99;100.00;99911.22;4399559;32;20449;-72
2022/08/10 05:37:32;;;;;;;6.47;3.53;;;;;;;19.55;100.00;99978.22;4368127;32;20035;-71
2022/08/10 05:40:01;;;;;;;5.97;3.70;;;;;;;19.73;100.00;99978.63;4355129;33;20884;-72
2022/08/10 05:42:28;;;;;;;6.18;2.97;;;;;;;19.79;100.00;99972.03;4355333;33;20114;-72
2022/08/10 05:44:55;;;;;;;7.05;3.45;;;;;;;19.76;100.00;99978.06;4355025;33;20062;-71
2022/08/10 05:47:22;;;;;;;5.37;3.47;;;;;;;19.75;100.00;99943.62;4367695;32;20024;-73
2022/08/10 05:49:50;;;;;;;11.65;3.70;;;;;;;20.03;100.00;99982.19;4370970;32;20372;-70
2022/08/10 05:52:17;;;;;;;2.97;2.47;;;;;;;20.05;100.00;99974.50;4371566;32;20028;-71
2022/08/10 05:54:44;;;;;;;10.63;3.40;;;;;;;20.01;100.00;99978.91;4372134;32;20074;-70
2022/08/10 05:57:11;;;;;;;4.32;3.90;;;;;;;20.08;100.00;99984.88;4370686;32;20473;-71
2022/08/10 05:59:45;;;;;;;8.77;3.40;;;;;;;20.26;100.00;99986.03;4371400;32;20071;-70
2022/08/10 06:02:21;;;;;;;12.48;3.00;;;;;;;20.13;100.00;99954.72;4370523;32;20039;-71
2022/08/10 06:04:51;;;;;;;3.50;3.15;;;;;;;20.45;100.00;99984.16;4372044;32;20105;-71
2022/08/10 06:07:19;;;;;;;6.10;3.53;;;;;;;20.27;100.00;99952.91;4357391;32;20071;-71
2022/08/10 06:09:47;;;;;;;8.48;3.50;;;;;;;20.63;100.00;99988.06;4370376;32;20031;-71
2022/08/10 06:12:15;;;;;;;6.87;3.35;;;;;;;20.66;100.00;99984.75;4357462;32;20048;-71
2022/08/10 06:15:02;;;;;;;7.50;2.83;;;;;;;20.53;100.00;99990.09;4357187;32;20028;-71
2022/08/10 06:17:30;;;;;;;3.28;3.08;;;;;;;20.27;100.00;99974.78;4356221;32;20460;-72
2022/08/10 06:19:58;;;;;;;8.38;3.12;;;;;;;20.40;100.00;99994.34;4356744;32;20458;-70
2022/08/10 06:22:26;;;;;;;5.30;2.92;;;;;;;20.19;100.00;99969.97;4357436;32;20032;-72
2022/08/10 06:24:55;;;;;;;4.70;3.08;;;;;;;20.21;100.00;99962.28;4357138;32;20044;-72
2022/08/10 06:27:21;;;;;;;3.83;2.85;;;;;;;20.26;100.00;100003.28;4357320;32;20043;-74
2022/08/10 06:29:50;;;;;;;3.60;2.87;;;;;;;19.94;100.00;99963.69;4355388;32;20097;-72
2022/08/10 06:32:18;;;;;;;4.35;2.53;;;;;;;20.14;100.00;99994.66;4342270;33;20044;-70
2022/08/10 06:34:49;;;;;;;2.80;2.37;;;;;;;20.08;100.00;100001.25;4342581;33;20025;-71
2022/08/10 06:37:19;;;;;;;4.82;2.80;;;;;;;20.20;100.00;99998.97;4341653;32;20027;-72
2022/08/10 06:39:47;;;;;;;4.35;2.42;;;;;;;20.63;100.00;100001.72;4387062;32;20051;-72
2022/08/10 06:42:19;;;;;;;12.13;4.15;;;;;;;20.57;100.00;99970.06;4387624;32;20039;-71
2022/08/10 06:45:03;;;;;;;3.17;2.67;;;;;;;20.86;100.00;100008.28;4401914;32;20035;-71
2022/08/10 06:47:37;;;;;;;5.07;2.45;;;;;;;20.43;100.00;99971.88;4401534;32;20080;-71
2022/08/10 06:50:14;;;;;;;5.95;2.75;;;;;;;20.02;100.00;99956.75;4402118;32;20111;-71
2022/08/10 06:52:41;;;;;;;6.90;2.78;;;;;;;20.49;100.00;100006.28;4400570;32;20080;-71
2022/08/10 06:55:12;;;;;;;10.15;2.80;;;;;;;20.36;100.00;99963.22;4397844;32;20066;-70
2022/08/10 06:57:40;;;;;;;8.38;2.78;;;;;;;20.68;100.00;100012.63;4402057;32;20023;-71
2022/08/10 07:00:07;;;;;;;6.78;2.87;;;;;;;20.48;100.00;99978.09;4401628;32;20188;-72
2022/08/10 07:02:56;;;;;;;7.90;3.00;;;;;;;20.59;100.00;100006.16;4407625;32;20371;-71
2022/08/10 07:05:25;;;;;;;3.10;2.80;;;;;;;20.84;100.00;100012.44;4433215;32;20042;-71
2022/08/10 07:07:56;;;;;;;7.25;2.90;;;;;;;20.72;100.00;99960.84;4432884;32;20038;-72
2022/08/10 07:10:25;;;;;;;3.97;2.37;;;;;;;21.17;100.00;100005.12;4433822;32;20067;-72
2022/08/10 07:12:56;;;;;;;3.75;2.25;;;;;;;21.20;100.00;100000.97;4433954;32;20478;-72
2022/08/10 07:15:24;;;;;;;5.00;3.17;;;;;;;21.35;100.00;100010.91;4432767;32;20034;-72
2022/08/10 07:17:52;;;;;;;7.03;2.50;;;;;;;21.00;100.00;99982.94;4434257;32;20383;-72
2022/08/10 07:20:21;;;;;;;10.30;3.08;;;;;;;21.00;100.00;99982.94;4433981;32;20042;-71
2022/08/10 07:22:51;;;;;;;2.85;2.28;;;;;;;21.10;100.00;100014.81;4430971;32;20067;-72
2022/08/10 07:25:21;;;;;;;2.60;2.20;;;;;;;20.96;100.00;100004.59;4434122;32;20059;-72
2022/08/10 07:27:48;;;;;;;4.65;2.17;;;;;;;20.95;100.00;100002.97;4434246;32;20055;-72
2022/08/10 07:30:15;;;;;;;4.05;2.17;;;;;;;21.24;100.00;100015.72;4433812;32;20188;-72
2022/08/10 07:32:45;;;;;;;4.72;2.40;;;;;;;21.04;100.00;99984.78;4431610;32;20045;-72
2022/08/10 07:35:14;;;;;;;5.82;2.50;;;;;;;21.37;100.00;100008.66;4434112;32;20077;-72
2022/08/10 07:37:45;;;;;;;3.62;1.83;;;;;;;21.35;100.00;99978.81;4434077;32;20034;-71
2022/08/10 07:40:13;;;;;;;3.45;2.05;;;;;;;21.64;100.00;100005.25;4434052;32;20054;-70
2022/08/10 07:42:42;;;;;;;3.95;1.95;;;;;;;21.72;100.00;100021.00;4431561;32;20079;-72
2022/08/10 07:45:09;;;;;;;2.47;1.73;;;;;;;21.31;100.00;99983.25;4386151;32;20039;-71
2022/08/10 07:47:46;;;;;;;1.87;1.70;;;;;;;21.60;100.00;100012.41;4386491;32;20055;-70
2022/08/10 07:50:16;;;;;;;5.95;2.08;;;;;;;21.67;100.00;100010.13;4385521;32;20027;-73
2022/08/10 07:52:45;;;;;;;2.35;1.67;;;;;;;21.55;100.00;100005.09;4384469;32;20799;-71
2022/08/10 07:55:16;;;;;;;2.75;1.95;;;;;;;21.61;100.00;100008.56;4384680;32;20338;-72
2022/08/10 07:57:53;;;;;;;1.90;1.80;;;;;;;21.76;100.00;100011.06;4384986;32;20114;-73
2022/08/10 08:00:20;;;;;;;5.12;2.33;;;;;;;21.73;100.00;100017.16;4385449;32;20061;-70
2022/08/10 08:02:58;;;;;;;4.05;1.92;;;;;;;21.84;100.00;100008.72;4385557;32;20031;-70
2022/08/10 08:05:27;;;;;;;3.30;1.40;;;;;;;21.85;100.00;100004.88;4385906;32;20059;-71
2022/08/10 08:07:56;;;;;;;2.80;1.65;;;;;;;21.41;100.00;99983.13;4368908;32;20366;-71
2022/08/10 08:10:25;;;;;;;4.18;1.83;;;;;;;21.30;100.00;99992.63;4370929;32;20038;-71
2022/08/10 08:12:56;;;;;;;3.95;1.60;;;;;;;21.38;100.00;99991.94;4370582;32;20080;-71
2022/08/10 08:15:25;;;;;;;1.30;1.20;;;;;;;21.66;100.00;100018.62;4374889;32;20043;-71
2022/08/10 08:17:54;;;;;;;5.90;1.40;;;;;;;21.77;100.00;100007.19;4399259;32;20026;-72
2022/08/10 08:20:23;;;;;;;1.85;1.75;;;;;;;21.60;100.00;99987.75;4400455;32;20046;-71
2022/08/10 08:22:50;;;;;;;1.42;1.30;;;;;;;21.59;100.00;99995.16;4400381;32;20039;-71
2022/08/10 08:25:18;;;;;;;9.10;1.95;;;;;;;21.85;100.00;100024.06;4400914;32;20056;-71
2022/08/10 08:27:55;;;;;;;4.22;2.00;;;;;;;21.67;100.00;99990.94;4398341;32;20119;-71
2022/08/10 08:30:23;;;;;;;3.00;1.48;;;;;;;22.00;100.00;100004.59;4400564;32;20042;-71
2022/08/10 08:32:50;;;;;;;3.22;1.77;;;;;;;21.60;100.00;99957.63;4400519;32;20031;-71
2022/08/10 08:35:18;;;;;;;1.55;1.33;;;;;;;21.77;100.00;99963.34;4400715;32;20065;-71
2022/08/10 08:37:47;;;;;;;3.87;1.90;;;;;;;21.74;100.00;99974.09;4383753;32;20082;-73
2022/08/10 08:40:19;;;;;;;2.42;1.52;;;;;;;21.86;100.00;99974.44;4400303;32;20042;-72
2022/08/10 08:43:12;;;;;;;1.58;1.40;;;;;;;22.19;100.00;100004.50;4400764;32;20039;-72
2022/08/10 08:46:08;;;;;;;1.73;1.62;;;;;;;21.93;100.00;99976.78;4398505;32;20066;-72
2022/08/10 08:48:50;;;;;;;2.50;1.45;;;;;;;22.02;100.00;100018.84;4400369;32;20050;-71
2022/08/10 08:51:54;;;;;;;1.58;1.48;;;;;;;22.13;100.00;100003.81;4399429;32;20067;-71
2022/08/10 08:54:39;;;;;;;1.48;1.37;;;;;;;22.60;100.00;100016.66;4397367;32;20357;-71
2022/08/10 08:57:45;;;;;;;2.12;1.37;;;;;;;22.27;100.00;100013.97;4400140;32;20060;-72
2022/08/10 09:00:18;;;;;;;3.75;1.40;;;;;;;22.56;100.00;99975.28;4400401;32;20062;-72
2022/08/10 09:03:06;;;;;;;2.28;1.77;;;;;;;22.76;100.00;100009.72;4400367;32;20045;-72
2022/08/10 09:05:41;;;;;;;5.97;1.67;;;;;;;22.84;100.00;100014.47;4397277;32;20050;-72
2022/08/10 09:08:07;;;;;;;4.18;1.50;;;;;;;22.60;100.00;99980.97;4406621;32;20060;-71
2022/08/10 09:11:00;;;;;;;1.80;1.30;;;;;;;22.33;100.00;99946.94;4432317;32;20034;-71
2022/08/10 09:13:32;;;;;;;3.85;1.95;;;;;;;22.75;100.00;100013.59;4432924;32;20042;-71
2022/08/10 09:16:33;;;;;;;2.50;1.67;;;;;;;22.46;100.00;99979.03;4432687;32;20041;-72
2022/08/10 09:19:09;;;;;;;1.98;1.42;;;;;;;22.48;100.00;100009.75;4432958;32;20050;-71
2022/08/10 09:22:01;;;;;;;3.47;1.35;;;;;;;22.41;100.00;99975.59;4433336;32;20034;-72
2022/08/10 09:24:48;;;;;;;2.10;1.02;;;;;;;22.43;100.00;99985.16;4432526;32;20420;-72
2022/08/10 09:27:39;;;;;;;4.00;1.27;;;;;;;22.75;100.00;100001.78;4435659;32;20068;-71
2022/08/10 09:30:07;;;;;;;1.35;1.25;;;;;;;22.80;100.00;99998.91;4429569;32;20353;-71
2022/08/10 09:32:34;;;;;;;2.83;1.45;;;;;;;22.75;100.00;99969.69;4402911;32;20035;-72
2022/08/10 09:35:20;;;;;;;4.57;1.30;;;;;;;22.80;100.00;100005.25;4403306;32;20053;-71
2022/08/10 09:38:02;;;;;;;5.60;1.40;;;;;;;22.66;99.66;100004.47;4401378;32;20067;-71
2022/08/10 09:40:43;;;;;;;4.62;1.62;;;;;;;22.53;100.00;99994.28;4403233;32;20073;-71
2022/08/10 09:43:56;;;;;;;3.40;1.62;;;;;;;22.45;100.00;100004.88;4401376;32;20035;-72
2022/08/10 09:46:58;;;;;;;5.45;1.67;;;;;;;22.94;100.00;99996.97;4400962;32;20048;-72
2022/08/10 09:49:30;;;;;;;2.00;1.20;;;;;;;23.39;100.00;99993.47;4402653;32;20046;-71
2022/08/10 09:52:15;;;;;;;2.55;1.40;;;;;;;23.10;100.00;99993.91;4400640;32;20043;-74
2022/08/10 09:54:51;;;;;;;1.65;1.62;;;;;;;22.83;100.00;100004.62;4402512;32;20466;-72
2022/08/10 09:57:33;;;;;;;1.23;1.05;;;;;;;22.54;100.00;99963.78;4402603;32;20052;-72
2022/08/10 10:00:07;;;;;;;1.00;1.00;;;;;;;22.86;100.00;99994.94;4402612;32;20050;-70
2022/08/10 10:03:11;;;;;;;4.90;1.42;;;;;;;23.20;99.26;99985.44;4403565;32;20035;-70
2022/08/10 10:05:40;;;;;;;1.70;1.60;;;;;;;23.44;94.48;99982.38;4416288;32;20086;-71
2022/08/10 10:08:22;;;;;;;3.47;1.30;;;;;;;23.56;97.98;99982.59;4418067;32;20037;-72
2022/08/10 10:11:06;;;;;;;2.55;0.90;;;;;;;23.78;93.87;99956.22;4417045;32;20095;-74
2022/08/10 10:13:43;;;;;;;1.27;1.12;;;;;;;23.63;95.71;99978.59;4417564;32;20052;-72
2022/08/10 10:16:36;;;;;;;1.20;1.10;;;;;;;23.54;96.84;99978.56;4417726;32;20038;-72
2022/08/10 10:19:36;;;;;;;1.90;1.15;;;;;;;23.14;94.64;99951.78;4416793;32;20466;-71
2022/08/10 10:22:05;;;;;;;0.98;0.98;;;;;;;23.17;97.13;99981.38;4415626;32;20060;-73
2022/08/10 10:24:44;;;;;;;5.05;1.95;;;;;;;22.81;99.73;99954.69;4417212;32;20067;-71
2022/08/10 10:27:29;;;;;;;2.80;1.23;;;;;;;23.55;97.37;99981.00;4417398;32;20366;-71
2022/08/10 10:30:06;;;;;;;1.33;1.20;;;;;;;23.52;88.99;99980.81;4414116;32;20099;-71
2022/08/10 10:33:11;;;;;;;2.95;1.60;;;;;;;23.58;88.96;99974.88;4417189;32;20069;-71
2022/08/10 10:35:46;;;;;;;0.90;0.90;;;;;;;24.03;80.71;99963.00;4417962;32;20046;-71
2022/08/10 10:38:15;;;;;;;1.10;1.00;;;;;;;24.31;81.54;99979.28;4435008;32;20064;-71
2022/08/10 10:40:52;;;;;;;2.58;1.65;;;;;;;24.65;81.67;99972.28;4434877;32;20466;-72
2022/08/10 10:44:07;;;;;;;1.00;0.95;;;;;;;23.90;66.92;99973.00;4434206;32;20067;-72
2022/08/10 10:47:25;;;;;;;1.10;1.00;;;;;;;24.16;60.85;99972.28;4355391;32;20114;-71
2022/08/10 10:50:16;;;;;;;1.05;0.90;;;;;;;24.75;65.14;99968.44;4336954;32;20062;-72
2022/08/10 10:53:12;;;;;;;0.75;0.75;;;;;;;25.10;65.27;99972.00;4356875;32;20066;-71
2022/08/10 10:55:48;;;;;;;1.27;1.15;;;;;;;24.48;70.14;99956.53;4356844;32;20155;-71
2022/08/10 10:58:25;;;;;;;0.98;0.98;;;;;;;24.27;76.12;99961.81;4356466;32;20031;-72
2022/08/10 11:01:17;;;;;;;3.83;1.00;;;;;;;23.64;83.06;99961.81;4356112;32;20401;-72
2022/08/10 11:03:43;;;;;;;;;;;;;;;23.66;85.20;99953.25;4355838;32;20403;-70
2022/08/10 11:06:34;;;;;;;3.40;1.17;;;;;;;24.18;74.81;99959.00;4355225;32;19939;-71
2022/08/10 11:09:07;;;;;;;5.55;0.95;;;;;;;24.47;70.43;99921.84;4356387;32;20078;-71
2022/08/10 11:11:44;;;;;;;0.98;0.98;;;;;;;25.31;63.09;99921.78;4356454;32;20053;-71
2022/08/10 11:14:38;;;;;;;0.90;0.90;;;;;;;25.98;55.86;99919.50;4354225;32;20405;-71
2022/08/10 11:17:21;;;;;;;1.12;0.98;;;;;;;26.08;51.85;99928.19;4356401;32;20058;-71
2022/08/10 11:19:53;;;;;;;1.35;1.10;;;;;;;26.69;53.13;99918.75;4355390;32;20035;-72
2022/08/10 11:22:31;;;;;;;1.17;1.08;;;;;;;27.00;48.32;99945.16;4376590;32;20033;-73
2022/08/10 11:25:05;;;;;;;0.75;0.70;;;;;;;26.23;45.18;99917.72;4428629;32;20091;-72
2022/08/10 11:27:56;;;;;;;0.77;0.77;;;;;;;25.51;46.76;99921.09;4432411;32;20346;-72
2022/08/10 11:30:51;;;;;;;1.00;1.00;;;;;;;25.25;45.42;99945.88;4434075;32;20042;-72
2022/08/10 11:33:30;;;;;;;0.82;0.82;;;;;;;25.63;46.86;99945.19;4399472;32;20101;-71
2022/08/10 11:36:04;;;;;;;0.85;0.85;;;;;;;26.57;47.78;99941.56;4401284;32;20038;-71
2022/08/10 11:38:40;;;;;;;4.53;0.90;;;;;;;27.18;46.31;99880.28;4398925;32;20049;-72
2022/08/10 11:41:42;;;;;;;1.27;1.00;;;;;;;28.09;43.95;99917.34;4401032;32;20043;-72
2022/08/10 11:44:39;;;;;;;0.80;0.80;;;;;;;27.74;41.20;99939.91;4354657;32;20442;-72
2022/08/10 11:47:21;;;;;;;0.80;0.80;;;;;;;28.72;42.99;99925.25;4395850;32;20068;-73
2022/08/10 11:49:59;;;;;;;0.73;0.73;;;;;;;29.24;40.26;99931.91;4401168;32;20050;-71
2022/08/10 11:52:47;;;;;;;0.70;0.70;;;;;;;28.72;36.64;99935.53;4401046;32;20367;-71
2022/08/10 11:55:19;;;;;;;0.70;0.70;;;;;;;27.85;37.07;99930.00;4400674;32;20061;-71
2022/08/10 11:57:48;;;;;;;5.50;0.98;;;;;;;27.53;37.64;99932.47;4354559;32;20061;-71